sensor_id;sensor_type;location;lat;lon;timestamp;pressure;altitude;pressure_sealevel;temperature;humidity
37610;BME280;23457;51.966;8.230;2023-03-23T00:01:00;99753.84;;;13.15;100.00
37610;BME280;23457;51.966;8.230;2023-03-23T00:03:26;99754.72;;;13.14;100.00
37610;BME280;23457;51.966;8.230;2023-03-23T00:05:55;99757.28;;;13.17;100.00
37610;BME280;23457;51.966;8.230;2023-03-23T00:08:27;99753.94;;;13.03;100.00
37610;BME280;23457;51.966;8.230;2023-03-23T00:10:53;99753.09;;;12.98;100.00
37610;BME280;23457;51.966;8.230;2023-03-23T00:13:25;99759.28;;;12.91;100.00
37610;BME280;23457;51.966;8.230;2023-03-23T00:15:51;99754.06;;;12.89;100.00
37610;BME280;23457;51.966;8.230;2023-03-23T00:18:21;99753.22;;;12.86;100.00
37610;BME280;23457;51.966;8.230;2023-03-23T00:20:56;99748.88;;;12.85;100.00
37610;BME280;23457;51.966;8.230;2023-03-23T00:23:24;99738.56;;;12.70;100.00
37610;BME280;23457;51.966;8.230;2023-03-23T00:25:55;99737.56;;;12.87;100.00
37610;BME280;23457;51.966;8.230;2023-03-23T00:28:25;99747.16;;;12.81;100.00
37610;BME280;23457;51.966;8.230;2023-03-23T00:31:02;99731.72;;;12.56;100.00
37610;BME280;23457;51.966;8.230;2023-03-23T00:33:31;99728.88;;;12.84;100.00
37610;BME280;23457;51.966;8.230;2023-03-23T00:36:07;99735.84;;;12.82;100.00
37610;BME280;23457;51.966;8.230;2023-03-23T00:38:35;99721.03;;;12.87;100.00
37610;BME280;23457;51.966;8.230;2023-03-23T00:41:01;99715.75;;;12.96;100.00
37610;BME280;23457;51.966;8.230;2023-03-23T00:43:31;99719.34;;;12.80;100.00
37610;BME280;23457;51.966;8.230;2023-03-23T00:45:58;99718.53;;;12.78;100.00
37610;BME280;23457;51.966;8.230;2023-03-23T00:48:27;99716.59;;;13.00;100.00
37610;BME280;23457;51.966;8.230;2023-03-23T00:50:55;99715.84;;;12.84;100.00
37610;BME280;23457;51.966;8.230;2023-03-23T00:53:22;99716.63;;;12.95;100.00
37610;BME280;23457;51.966;8.230;2023-03-23T00:55:48;99713.09;;;12.99;100.00
37610;BME280;23457;51.966;8.230;2023-03-23T00:58:14;99717.50;;;12.94;100.00
37610;BME280;23457;51.966;8.230;2023-03-23T01:00:41;99713.09;;;13.02;100.00
37610;BME280;23457;51.966;8.230;2023-03-23T01:03:08;99706.88;;;13.12;100.00
37610;BME280;23457;51.966;8.230;2023-03-23T01:05:35;99701.84;;;12.94;100.00
37610;BME280;23457;51.966;8.230;2023-03-23T01:08:03;99698.72;;;12.55;100.00
37610;BME280;23457;51.966;8.230;2023-03-23T01:10:30;99698.47;;;12.86;100.00
37610;BME280;23457;51.966;8.230;2023-03-23T01:12:59;99696.81;;;12.76;100.00
37610;BME280;23457;51.966;8.230;2023-03-23T01:15:28;99682.72;;;12.92;100.00
37610;BME280;23457;51.966;8.230;2023-03-23T01:17:54;99687.88;;;13.00;100.00
37610;BME280;23457;51.966;8.230;2023-03-23T01:20:20;99686.28;;;12.85;100.00
37610;BME280;23457;51.966;8.230;2023-03-23T01:22:46;99687.13;;;12.90;100.00
37610;BME280;23457;51.966;8.230;2023-03-23T01:25:13;99685.31;;;12.97;100.00
37610;BME280;23457;51.966;8.230;2023-03-23T01:27:39;99677.50;;;12.92;100.00
37610;BME280;23457;51.966;8.230;2023-03-23T01:30:07;99686.16;;;12.97;100.00
37610;BME280;23457;51.966;8.230;2023-03-23T01:32:33;99682.56;;;13.09;100.00
37610;BME280;23457;51.966;8.230;2023-03-23T01:34:58;99673.25;;;12.85;100.00
37610;BME280;23457;51.966;8.230;2023-03-23T01:37:24;99672.22;;;13.01;100.00
37610;BME280;23457;51.966;8.230;2023-03-23T01:39:53;99683.56;;;12.96;100.00
37610;BME280;23457;51.966;8.230;2023-03-23T01:42:30;99680.13;;;12.92;100.00
37610;BME280;23457;51.966;8.230;2023-03-23T01:47:46;99675.72;;;13.00;100.00
37610;BME280;23457;51.966;8.230;2023-03-23T01:50:15;99677.47;;;12.98;100.00
37610;BME280;23457;51.966;8.230;2023-03-23T01:52:41;99666.06;;;13.05;100.00
37610;BME280;23457;51.966;8.230;2023-03-23T01:55:07;99677.59;;;12.86;100.00
37610;BME280;23457;51.966;8.230;2023-03-23T01:57:34;99674.00;;;12.99;100.00
37610;BME280;23457;51.966;8.230;2023-03-23T02:00:05;99674.84;;;13.00;100.00
37610;BME280;23457;51.966;8.230;2023-03-23T02:02:48;99671.41;;;12.96;100.00
37610;BME280;23457;51.966;8.230;2023-03-23T02:05:30;99670.56;;;12.92;100.00
37610;BME280;23457;51.966;8.230;2023-03-23T02:08:00;99665.03;;;13.24;99.85
37610;BME280;23457;51.966;8.230;2023-03-23T02:10:32;99664.59;;;12.81;100.00
37610;BME280;23457;51.966;8.230;2023-03-23T02:12:59;99664.31;;;13.07;100.00
37610;BME280;23457;51.966;8.230;2023-03-23T02:16:19;99662.53;;;13.12;99.99
37610;BME280;23457;51.966;8.230;2023-03-23T02:18:31;99656.34;;;13.25;99.60
37610;BME280;23457;51.966;8.230;2023-03-23T02:26:38;99627.03;;;12.99;100.00
37610;BME280;23457;51.966;8.230;2023-03-23T02:34:56;99621.22;;;12.76;100.00
37610;BME280;23457;51.966;8.230;2023-03-23T02:37:30;99610.44;;;13.06;100.00
37610;BME280;23457;51.966;8.230;2023-03-23T02:40:10;99618.53;;;12.82;100.00
37610;BME280;23457;51.966;8.230;2023-03-23T02:42:38;99624.53;;;12.91;100.00
37610;BME280;23457;51.966;8.230;2023-03-23T02:45:08;99616.84;;;12.78;100.00
37610;BME280;23457;51.966;8.230;2023-03-23T02:47:37;99601.00;;;12.93;100.00
37610;BME280;23457;51.966;8.230;2023-03-23T02:50:05;99606.28;;;12.91;99.91
37610;BME280;23457;51.966;8.230;2023-03-23T02:52:32;99602.88;;;12.82;99.47
37610;BME280;23457;51.966;8.230;2023-03-23T02:55:02;99601.06;;;12.90;98.81
37610;BME280;23457;51.966;8.230;2023-03-23T02:57:28;99615.88;;;12.88;98.39
37610;BME280;23457;51.966;8.230;2023-03-23T02:59:56;99605.47;;;12.85;98.21
37610;BME280;23457;51.966;8.230;2023-03-23T03:02:26;99602.66;;;13.03;96.89
37610;BME280;23457;51.966;8.230;2023-03-23T03:10:28;99608.78;;;12.99;96.50
37610;BME280;23457;51.966;8.230;2023-03-23T03:13:05;99620.13;;;12.95;96.35
37610;BME280;23457;51.966;8.230;2023-03-23T03:15:36;99592.25;;;13.00;96.42
37610;BME280;23457;51.966;8.230;2023-03-23T03:20:28;99597.75;;;12.76;98.15
37610;BME280;23457;51.966;8.230;2023-03-23T03:22:55;99594.03;;;12.95;97.62
37610;BME280;23457;51.966;8.230;2023-03-23T03:25:24;99590.81;;;12.72;97.94
37610;BME280;23457;51.966;8.230;2023-03-23T03:27:55;99590.72;;;12.81;98.08
37610;BME280;23457;51.966;8.230;2023-03-23T03:30:36;99583.84;;;12.74;98.19
37610;BME280;23457;51.966;8.230;2023-03-23T03:33:03;99585.59;;;12.75;98.62
37610;BME280;23457;51.966;8.230;2023-03-23T03:35:30;99566.22;;;12.94;97.55
37610;BME280;23457;51.966;8.230;2023-03-23T03:37:57;99544.34;;;13.06;96.52
37610;BME280;23457;51.966;8.230;2023-03-23T03:40:30;99511.53;;;12.89;97.53
37610;BME280;23457;51.966;8.230;2023-03-23T03:42:55;99528.06;;;12.90;97.63
37610;BME280;23457;51.966;8.230;2023-03-23T03:45:21;99551.75;;;12.69;98.39
37610;BME280;23457;51.966;8.230;2023-03-23T03:47:48;99567.22;;;12.85;97.90
37610;BME280;23457;51.966;8.230;2023-03-23T03:50:15;99574.91;;;12.96;96.94
37610;BME280;23457;51.966;8.230;2023-03-23T03:52:42;99579.06;;;13.14;96.46
37610;BME280;23457;51.966;8.230;2023-03-23T03:55:08;99578.22;;;13.10;96.31
37610;BME280;23457;51.966;8.230;2023-03-23T03:57:37;99576.69;;;12.92;97.42
37610;BME280;23457;51.966;8.230;2023-03-23T04:00:05;99559.44;;;12.81;98.18
37610;BME280;23457;51.966;8.230;2023-03-23T04:02:42;99573.19;;;12.93;97.51
37610;BME280;23457;51.966;8.230;2023-03-23T04:05:09;99568.19;;;12.77;98.73
37610;BME280;23457;51.966;8.230;2023-03-23T04:07:36;99565.50;;;12.81;98.71
37610;BME280;23457;51.966;8.230;2023-03-23T04:10:05;99573.31;;;12.83;98.67
37610;BME280;23457;51.966;8.230;2023-03-23T04:12:33;99567.97;;;12.93;98.28
37610;BME280;23457;51.966;8.230;2023-03-23T04:15:17;99561.97;;;12.88;98.51
37610;BME280;23457;51.966;8.230;2023-03-23T04:17:43;99563.13;;;12.62;100.00
37610;BME280;23457;51.966;8.230;2023-03-23T04:20:10;99568.09;;;12.83;99.60
37610;BME280;23457;51.966;8.230;2023-03-23T04:22:47;99562.13;;;12.76;99.71
37610;BME280;23457;51.966;8.230;2023-03-23T04:25:19;99578.56;;;12.80;99.88
37610;BME280;23457;51.966;8.230;2023-03-23T04:27:51;99586.38;;;12.80;100.00
37610;BME280;23457;51.966;8.230;2023-03-23T04:30:25;99573.28;;;12.86;99.70
37610;BME280;23457;51.966;8.230;2023-03-23T04:33:08;99577.97;;;12.55;100.00
37610;BME280;23457;51.966;8.230;2023-03-23T04:35:34;99586.44;;;12.77;100.00
37610;BME280;23457;51.966;8.230;2023-03-23T04:38:12;99587.25;;;12.80;100.00
37610;BME280;23457;51.966;8.230;2023-03-23T04:40:41;99587.06;;;12.97;99.84
37610;BME280;23457;51.966;8.230;2023-03-23T04:43:16;99585.28;;;13.02;98.71
37610;BME280;23457;51.966;8.230;2023-03-23T04:45:56;99597.38;;;13.08;99.24
37610;BME280;23457;51.966;8.230;2023-03-23T04:48:25;99588.81;;;12.95;99.71
37610;BME280;23457;51.966;8.230;2023-03-23T04:51:02;99589.69;;;12.96;100.00
37610;BME280;23457;51.966;8.230;2023-03-23T04:53:31;99588.78;;;13.01;99.13
37610;BME280;23457;51.966;8.230;2023-03-23T04:55:57;99597.50;;;12.97;99.29
37610;BME280;23457;51.966;8.230;2023-03-23T04:58:24;99593.97;;;13.01;99.06
37610;BME280;23457;51.966;8.230;2023-03-23T05:01:13;99584.47;;;12.97;99.04
37610;BME280;23457;51.966;8.230;2023-03-23T05:03:46;99588.75;;;13.03;99.15
37610;BME280;23457;51.966;8.230;2023-03-23T05:06:13;99587.00;;;13.03;98.66
37610;BME280;23457;51.966;8.230;2023-03-23T05:08:39;99589.56;;;13.05;98.64
37610;BME280;23457;51.966;8.230;2023-03-23T05:11:06;99581.13;;;12.86;99.05
37610;BME280;23457;51.966;8.230;2023-03-23T05:13:36;99581.00;;;12.95;99.23
37610;BME280;23457;51.966;8.230;2023-03-23T05:16:05;99578.34;;;13.01;98.63
37610;BME280;23457;51.966;8.230;2023-03-23T05:18:33;99569.84;;;12.81;99.59
37610;BME280;23457;51.966;8.230;2023-03-23T05:21:03;99569.06;;;12.77;99.31
37610;BME280;23457;51.966;8.230;2023-03-23T05:23:33;99569.97;;;12.72;99.47
37610;BME280;23457;51.966;8.230;2023-03-23T05:26:07;99563.59;;;12.96;98.97
37610;BME280;23457;51.966;8.230;2023-03-23T05:28:32;99567.25;;;12.82;99.14
37610;BME280;23457;51.966;8.230;2023-03-23T05:31:09;99567.38;;;12.72;99.37
37610;BME280;23457;51.966;8.230;2023-03-23T05:33:35;99572.63;;;12.67;99.71
37610;BME280;23457;51.966;8.230;2023-03-23T05:36:09;99568.97;;;12.83;99.24
37610;BME280;23457;51.966;8.230;2023-03-23T05:38:56;99572.53;;;12.76;99.00
37610;BME280;23457;51.966;8.230;2023-03-23T05:41:23;99569.06;;;12.77;98.90
37610;BME280;23457;51.966;8.230;2023-03-23T05:43:49;99577.91;;;12.61;99.22
37610;BME280;23457;51.966;8.230;2023-03-23T05:46:44;99586.34;;;12.83;97.89
37610;BME280;23457;51.966;8.230;2023-03-23T05:49:10;99588.84;;;12.92;97.50
37610;BME280;23457;51.966;8.230;2023-03-23T05:51:39;99590.56;;;12.96;97.20
37610;BME280;23457;51.966;8.230;2023-03-23T05:54:05;99600.38;;;12.73;98.21
37610;BME280;23457;51.966;8.230;2023-03-23T05:56:32;99588.91;;;12.89;97.31
37610;BME280;23457;51.966;8.230;2023-03-23T05:59:30;99601.88;;;12.92;96.91
37610;BME280;23457;51.966;8.230;2023-03-23T06:01:58;99599.19;;;13.01;96.53
37610;BME280;23457;51.966;8.230;2023-03-23T06:04:23;99597.44;;;13.03;96.63
37610;BME280;23457;51.966;8.230;2023-03-23T06:07:16;99606.06;;;13.07;96.41
37610;BME280;23457;51.966;8.230;2023-03-23T06:09:52;99611.31;;;13.05;96.44
37610;BME280;23457;51.966;8.230;2023-03-23T06:12:24;99605.31;;;12.99;96.83
37610;BME280;23457;51.966;8.230;2023-03-23T06:14:59;99612.13;;;13.09;96.28
37610;BME280;23457;51.966;8.230;2023-03-23T06:17:42;99617.34;;;13.15;96.12
37610;BME280;23457;51.966;8.230;2023-03-23T06:20:09;99606.75;;;13.25;95.82
37610;BME280;23457;51.966;8.230;2023-03-23T06:22:39;99611.19;;;13.17;95.96
37610;BME280;23457;51.966;8.230;2023-03-23T06:25:25;99613.69;;;13.28;95.24
37610;BME280;23457;51.966;8.230;2023-03-23T06:27:51;99612.69;;;13.40;94.42
37610;BME280;23457;51.966;8.230;2023-03-23T06:30:17;99618.13;;;13.18;95.73
37610;BME280;23457;51.966;8.230;2023-03-23T06:32:43;99623.31;;;13.21;95.32
37610;BME280;23457;51.966;8.230;2023-03-23T06:35:13;99606.88;;;13.16;95.73
37610;BME280;23457;51.966;8.230;2023-03-23T06:38:08;99613.56;;;13.37;94.46
37610;BME280;23457;51.966;8.230;2023-03-23T06:40:44;99626.56;;;13.42;94.41
37610;BME280;23457;51.966;8.230;2023-03-23T06:43:13;99624.63;;;13.56;93.95
37610;BME280;23457;51.966;8.230;2023-03-23T06:46:06;99618.84;;;13.31;94.73
37610;BME280;23457;51.966;8.230;2023-03-23T06:48:40;99617.97;;;13.34;94.52
37610;BME280;23457;51.966;8.230;2023-03-23T06:51:09;99625.88;;;13.27;94.77
37610;BME280;23457;51.966;8.230;2023-03-23T06:53:37;99633.50;;;13.43;94.27
37610;BME280;23457;51.966;8.230;2023-03-23T06:56:04;99629.84;;;13.56;93.35
37610;BME280;23457;51.966;8.230;2023-03-23T06:58:31;99623.19;;;13.34;94.06
37610;BME280;23457;51.966;8.230;2023-03-23T07:00:57;99632.72;;;13.36;94.54
37610;BME280;23457;51.966;8.230;2023-03-23T07:03:34;99632.56;;;13.48;93.54
37610;BME280;23457;51.966;8.230;2023-03-23T07:06:00;99627.34;;;13.48;94.00
37610;BME280;23457;51.966;8.230;2023-03-23T07:08:31;99636.00;;;13.52;93.57
37610;BME280;23457;51.966;8.230;2023-03-23T07:10:57;99638.47;;;13.61;93.38
37610;BME280;23457;51.966;8.230;2023-03-23T07:13:26;99622.13;;;13.48;93.54
37610;BME280;23457;51.966;8.230;2023-03-23T07:15:58;99629.09;;;13.46;94.00
37610;BME280;23457;51.966;8.230;2023-03-23T07:18:25;99635.03;;;13.59;93.45
37610;BME280;23457;51.966;8.230;2023-03-23T07:20:53;99628.69;;;13.77;92.49
37610;BME280;23457;51.966;8.230;2023-03-23T07:23:22;99634.09;;;13.65;93.38
37610;BME280;23457;51.966;8.230;2023-03-23T07:26:08;99649.66;;;13.72;92.67
37610;BME280;23457;51.966;8.230;2023-03-23T07:28:38;99637.63;;;13.59;93.05
37610;BME280;23457;51.966;8.230;2023-03-23T07:31:27;99634.13;;;13.63;93.42
37610;BME280;23457;51.966;8.230;2023-03-23T07:33:55;99628.84;;;13.68;92.69
37610;BME280;23457;51.966;8.230;2023-03-23T07:36:25;99641.63;;;13.84;92.40
37610;BME280;23457;51.966;8.230;2023-03-23T07:38:52;99647.22;;;13.57;94.08
37610;BME280;23457;51.966;8.230;2023-03-23T07:41:18;99643.63;;;13.67;93.74
37610;BME280;23457;51.966;8.230;2023-03-23T07:43:45;99650.56;;;13.68;93.40
37610;BME280;23457;51.966;8.230;2023-03-23T07:46:34;99654.34;;;13.46;94.76
37610;BME280;23457;51.966;8.230;2023-03-23T07:49:09;99661.41;;;13.38;95.45
37610;BME280;23457;51.966;8.230;2023-03-23T07:51:41;99652.44;;;13.57;94.10
37610;BME280;23457;51.966;8.230;2023-03-23T07:54:10;99659.53;;;13.47;94.93
37610;BME280;23457;51.966;8.230;2023-03-23T07:56:51;99660.31;;;13.55;94.59
37610;BME280;23457;51.966;8.230;2023-03-23T07:59:21;99656.00;;;13.53;94.77
37610;BME280;23457;51.966;8.230;2023-03-23T08:01:47;99659.56;;;13.46;94.72
37610;BME280;23457;51.966;8.230;2023-03-23T08:04:33;99648.97;;;13.56;93.81
37610;BME280;23457;51.966;8.230;2023-03-23T08:07:20;99655.06;;;13.55;95.08
37610;BME280;23457;51.966;8.230;2023-03-23T08:10:10;99655.91;;;13.59;95.27
37610;BME280;23457;51.966;8.230;2023-03-23T08:13:14;99655.69;;;13.77;94.31
37610;BME280;23457;51.966;8.230;2023-03-23T08:15:51;99659.06;;;13.84;93.33
37610;BME280;23457;51.966;8.230;2023-03-23T08:18:36;99658.63;;;13.53;93.43
37610;BME280;23457;51.966;8.230;2023-03-23T08:21:21;99663.41;;;13.83;92.08
37610;BME280;23457;51.966;8.230;2023-03-23T08:24:05;99657.22;;;13.92;91.31
37610;BME280;23457;51.966;8.230;2023-03-23T08:27:00;99656.19;;;14.02;90.79
37610;BME280;23457;51.966;8.230;2023-03-23T08:29:44;99656.84;;;14.18;89.87
37610;BME280;23457;51.966;8.230;2023-03-23T08:32:43;99654.56;;;13.93;89.96
37610;BME280;23457;51.966;8.230;2023-03-23T08:35:42;99662.06;;;14.18;88.87
37610;BME280;23457;51.966;8.230;2023-03-23T08:38:29;99661.47;;;13.97;88.96
37610;BME280;23457;51.966;8.230;2023-03-23T08:41:14;99658.81;;;14.01;89.23
37610;BME280;23457;51.966;8.230;2023-03-23T08:43:55;99668.06;;;14.23;88.69
37610;BME280;23457;51.966;8.230;2023-03-23T08:46:51;99670.84;;;14.11;88.05
37610;BME280;23457;51.966;8.230;2023-03-23T08:49:52;99668.91;;;14.25;87.78
37610;BME280;23457;51.966;8.230;2023-03-23T08:52:50;99669.06;;;14.16;87.01
37610;BME280;23457;51.966;8.230;2023-03-23T08:55:26;99678.69;;;14.11;87.35
37610;BME280;23457;51.966;8.230;2023-03-23T08:58:01;99681.78;;;14.40;86.13
37610;BME280;23457;51.966;8.230;2023-03-23T09:00:49;99676.56;;;14.35;85.42
37610;BME280;23457;51.966;8.230;2023-03-23T09:03:34;99675.63;;;14.43;85.48
37610;BME280;23457;51.966;8.230;2023-03-23T09:06:28;99689.16;;;14.67;84.40
37610;BME280;23457;51.966;8.230;2023-03-23T09:08:54;99686.53;;;14.69;84.37
37610;BME280;23457;51.966;8.230;2023-03-23T09:11:21;99679.84;;;14.51;84.51
37610;BME280;23457;51.966;8.230;2023-03-23T09:13:46;99682.44;;;14.53;84.09
37610;BME280;23457;51.966;8.230;2023-03-23T09:16:12;99684.69;;;14.74;82.57
37610;BME280;23457;51.966;8.230;2023-03-23T09:18:38;99684.56;;;14.82;82.83
37610;BME280;23457;51.966;8.230;2023-03-23T09:21:04;99699.50;;;14.74;81.88
37610;BME280;23457;51.966;8.230;2023-03-23T09:23:30;99694.22;;;14.77;82.31
37610;BME280;23457;51.966;8.230;2023-03-23T09:25:56;99686.53;;;14.69;81.89
37610;BME280;23457;51.966;8.230;2023-03-23T09:28:22;99694.84;;;14.91;81.41
37610;BME280;23457;51.966;8.230;2023-03-23T09:30:47;99706.06;;;14.97;81.05
37610;BME280;23457;51.966;8.230;2023-03-23T09:33:14;99715.78;;;14.91;80.73
37610;BME280;23457;51.966;8.230;2023-03-23T09:35:40;99729.41;;;14.57;81.08
37610;BME280;23457;51.966;8.230;2023-03-23T09:38:08;99720.09;;;14.41;81.95
37610;BME280;23457;51.966;8.230;2023-03-23T09:48:46;99720.34;;;14.80;80.65
37610;BME280;23457;51.966;8.230;2023-03-23T09:56:38;99713.69;;;14.60;80.37
37610;BME280;23457;51.966;8.230;2023-03-23T09:59:19;99740.50;;;14.73;79.71
37610;BME280;23457;51.966;8.230;2023-03-23T10:01:51;99734.19;;;14.85;78.36
37610;BME280;23457;51.966;8.230;2023-03-23T10:04:28;99733.94;;;15.00;77.96
37610;BME280;23457;51.966;8.230;2023-03-23T10:07:05;99725.88;;;15.12;77.80
37610;BME280;23457;51.966;8.230;2023-03-23T10:09:33;99731.25;;;15.04;77.67
37610;BME280;23457;51.966;8.230;2023-03-23T10:15:03;99729.94;;;15.28;76.59
37610;BME280;23457;51.966;8.230;2023-03-23T10:22:47;99726.56;;;15.20;75.95
37610;BME280;23457;51.966;8.230;2023-03-23T10:25:19;99731.81;;;15.20;74.90
37610;BME280;23457;51.966;8.230;2023-03-23T10:28:06;99726.06;;;15.01;76.11
37610;BME280;23457;51.966;8.230;2023-03-23T10:35:56;99788.69;;;14.57;82.45
37610;BME280;23457;51.966;8.230;2023-03-23T10:38:36;99802.50;;;13.21;86.36
37610;BME280;23457;51.966;8.230;2023-03-23T10:41:11;99813.59;;;12.27;94.77
37610;BME280;23457;51.966;8.230;2023-03-23T10:43:38;99814.66;;;11.59;100.00
37610;BME280;23457;51.966;8.230;2023-03-23T10:49:08;99810.34;;;11.50;100.00
37610;BME280;23457;51.966;8.230;2023-03-23T10:51:41;99820.69;;;11.68;100.00
37610;BME280;23457;51.966;8.230;2023-03-23T10:54:10;99814.66;;;11.56;100.00
37610;BME280;23457;51.966;8.230;2023-03-23T10:56:43;99815.50;;;11.71;100.00
37610;BME280;23457;51.966;8.230;2023-03-23T11:01:54;99823.38;;;11.52;100.00
37610;BME280;23457;51.966;8.230;2023-03-23T11:04:22;99812.09;;;11.51;100.00
37610;BME280;23457;51.966;8.230;2023-03-23T11:06:51;99813.78;;;11.55;100.00
37610;BME280;23457;51.966;8.230;2023-03-23T11:09:20;99817.22;;;11.84;100.00
37610;BME280;23457;51.966;8.230;2023-03-23T11:11:54;99819.03;;;11.52;100.00
37610;BME280;23457;51.966;8.230;2023-03-23T11:14:32;99818.97;;;11.82;100.00
37610;BME280;23457;51.966;8.230;2023-03-23T11:17:02;99812.84;;;12.02;100.00
37610;BME280;23457;51.966;8.230;2023-03-23T11:19:33;99825.88;;;11.94;100.00
37610;BME280;23457;51.966;8.230;2023-03-23T11:24:36;99823.16;;;12.22;100.00
37610;BME280;23457;51.966;8.230;2023-03-23T11:27:03;99830.19;;;11.92;100.00
37610;BME280;23457;51.966;8.230;2023-03-23T11:29:33;99836.16;;;12.20;100.00
37610;BME280;23457;51.966;8.230;2023-03-23T11:34:31;99849.25;;;12.12;100.00
37610;BME280;23457;51.966;8.230;2023-03-23T11:39:54;99851.06;;;11.89;100.00
37610;BME280;23457;51.966;8.230;2023-03-23T11:42:23;99857.88;;;12.17;100.00
37610;BME280;23457;51.966;8.230;2023-03-23T11:44:54;99861.34;;;12.18;100.00
37610;BME280;23457;51.966;8.230;2023-03-23T11:47:39;99846.69;;;11.93;100.00
37610;BME280;23457;51.966;8.230;2023-03-23T11:53:10;99851.84;;;12.11;100.00
37610;BME280;23457;51.966;8.230;2023-03-23T11:58:15;99843.13;;;12.26;99.42
37610;BME280;23457;51.966;8.230;2023-03-23T12:01:17;99841.44;;;12.05;100.00
37610;BME280;23457;51.966;8.230;2023-03-23T12:09:47;99841.00;;;12.84;97.67
37610;BME280;23457;51.966;8.230;2023-03-23T12:12:26;99830.56;;;12.90;95.58
37610;BME280;23457;51.966;8.230;2023-03-23T12:15:12;99836.75;;;12.69;95.86
37610;BME280;23457;51.966;8.230;2023-03-23T12:18:33;99848.13;;;12.57;96.46
37610;BME280;23457;51.966;8.230;2023-03-23T12:23:26;99855.22;;;12.37;100.00
37610;BME280;23457;51.966;8.230;2023-03-23T12:26:33;99849.84;;;12.65;100.00
37610;BME280;23457;51.966;8.230;2023-03-23T12:39:55;99839.41;;;12.65;100.00
37610;BME280;23457;51.966;8.230;2023-03-23T12:48:02;99840.28;;;12.65;100.00
37610;BME280;23457;51.966;8.230;2023-03-23T12:55:53;99837.63;;;12.70;100.00
37610;BME280;23457;51.966;8.230;2023-03-23T12:58:24;99849.81;;;12.68;100.00
37610;BME280;23457;51.966;8.230;2023-03-23T13:03:27;99830.47;;;13.02;100.00
37610;BME280;23457;51.966;8.230;2023-03-23T13:08:44;99835.72;;;12.96;100.00
37610;BME280;23457;51.966;8.230;2023-03-23T13:11:37;99837.34;;;13.06;100.00
37610;BME280;23457;51.966;8.230;2023-03-23T13:28:04;99829.84;;;13.69;100.00
37610;BME280;23457;51.966;8.230;2023-03-23T13:30:30;99828.81;;;13.84;100.00
37610;BME280;23457;51.966;8.230;2023-03-23T13:33:10;99842.03;;;13.70;100.00
37610;BME280;23457;51.966;8.230;2023-03-23T13:35:38;99839.97;;;13.99;100.00
37610;BME280;23457;51.966;8.230;2023-03-23T13:38:20;99839.25;;;13.85;100.00
37610;BME280;23457;51.966;8.230;2023-03-23T13:40:47;99845.47;;;13.72;100.00
37610;BME280;23457;51.966;8.230;2023-03-23T13:43:24;99857.13;;;13.41;100.00
37610;BME280;23457;51.966;8.230;2023-03-23T13:45:51;99836.16;;;13.50;100.00
37610;BME280;23457;51.966;8.230;2023-03-23T13:48:22;99823.06;;;13.53;100.00
37610;BME280;23457;51.966;8.230;2023-03-23T13:50:58;99806.41;;;13.65;100.00
37610;BME280;23457;51.966;8.230;2023-03-23T13:56:20;99813.16;;;13.81;100.00
37610;BME280;23457;51.966;8.230;2023-03-23T13:58:51;99816.47;;;13.98;100.00
37610;BME280;23457;51.966;8.230;2023-03-23T14:01:35;99816.34;;;14.07;100.00
37610;BME280;23457;51.966;8.230;2023-03-23T14:04:05;99812.13;;;13.95;100.00
37610;BME280;23457;51.966;8.230;2023-03-23T14:06:35;99812.38;;;13.74;100.00
37610;BME280;23457;51.966;8.230;2023-03-23T14:09:18;99825.59;;;13.60;100.00
37610;BME280;23457;51.966;8.230;2023-03-23T14:11:56;99829.41;;;13.29;100.00
37610;BME280;23457;51.966;8.230;2023-03-23T14:14:26;99823.19;;;13.41;100.00
37610;BME280;23457;51.966;8.230;2023-03-23T14:17:05;99825.72;;;13.50;100.00
37610;BME280;23457;51.966;8.230;2023-03-23T14:19:32;99828.81;;;13.84;100.00
37610;BME280;23457;51.966;8.230;2023-03-23T14:21:59;99828.63;;;14.02;100.00
37610;BME280;23457;51.966;8.230;2023-03-23T14:24:28;99837.22;;;14.10;100.00
37610;BME280;23457;51.966;8.230;2023-03-23T14:27:16;99838.44;;;13.80;100.00
37610;BME280;23457;51.966;8.230;2023-03-23T14:29:42;99831.53;;;13.76;100.00
37610;BME280;23457;51.966;8.230;2023-03-23T14:32:14;99817.28;;;14.05;100.00
37610;BME280;23457;51.966;8.230;2023-03-23T14:34:41;99814.72;;;13.97;100.00
37610;BME280;23457;51.966;8.230;2023-03-23T14:37:11;99823.38;;;14.04;100.00
37610;BME280;23457;51.966;8.230;2023-03-23T14:39:38;99820.06;;;14.57;100.00
37610;BME280;23457;51.966;8.230;2023-03-23T14:42:06;99816.94;;;14.29;100.00
37610;BME280;23457;51.966;8.230;2023-03-23T14:44:39;99802.69;;;14.54;100.00
37610;BME280;23457;51.966;8.230;2023-03-23T14:47:09;99810.53;;;14.53;100.00
37610;BME280;23457;51.966;8.230;2023-03-23T14:49:40;99809.13;;;14.89;99.66
37610;BME280;23457;51.966;8.230;2023-03-23T14:52:12;99807.63;;;15.26;98.67
37610;BME280;23457;51.966;8.230;2023-03-23T14:54:39;99801.50;;;15.27;96.30
37610;BME280;23457;51.966;8.230;2023-03-23T14:57:15;99796.22;;;15.30;97.76
37610;BME280;23457;51.966;8.230;2023-03-23T14:59:45;99810.50;;;15.11;95.51
37610;BME280;23457;51.966;8.230;2023-03-23T15:02:28;99829.94;;;15.46;94.23
37610;BME280;23457;51.966;8.230;2023-03-23T15:05:21;99825.78;;;15.35;93.88
37610;BME280;23457;51.966;8.230;2023-03-23T15:07:47;99810.66;;;15.02;93.17
37610;BME280;23457;51.966;8.230;2023-03-23T15:10:18;99820.69;;;14.74;92.51
37610;BME280;23457;51.966;8.230;2023-03-23T15:12:45;99817.69;;;14.97;94.92
37610;BME280;23457;51.966;8.230;2023-03-23T15:15:24;99820.06;;;15.14;93.61
37610;BME280;23457;51.966;8.230;2023-03-23T15:17:50;99809.75;;;15.04;94.17
37610;BME280;23457;51.966;8.230;2023-03-23T15:20:28;99815.94;;;14.99;93.20
37610;BME280;23457;51.966;8.230;2023-03-23T15:22:55;99814.50;;;14.80;94.44
37610;BME280;23457;51.966;8.230;2023-03-23T15:27:55;99809.66;;;14.54;95.47